sensor_id;sensor_type;location;lat;lon;timestamp;temperature;humidity
44775;DHT22;31340;51.402;0.016;2023-09-12T00:01:19;21.20;96.10
44775;DHT22;31340;51.402;0.016;2023-09-12T00:03:47;21.10;96.10
44775;DHT22;31340;51.402;0.016;2023-09-12T00:06:15;21.10;96.20
44775;DHT22;31340;51.402;0.016;2023-09-12T00:08:43;21.10;96.20
44775;DHT22;31340;51.402;0.016;2023-09-12T00:11:11;21.10;96.30
44775;DHT22;31340;51.402;0.016;2023-09-12T00:13:39;21.10;96.40
44775;DHT22;31340;51.402;0.016;2023-09-12T00:16:07;21.10;96.40
44775;DHT22;31340;51.402;0.016;2023-09-12T00:18:38;21.00;96.50
44775;DHT22;31340;51.402;0.016;2023-09-12T00:21:07;21.00;96.60
44775;DHT22;31340;51.402;0.016;2023-09-12T00:23:35;21.00;96.70
44775;DHT22;31340;51.402;0.016;2023-09-12T00:26:02;20.90;96.70
44775;DHT22;31340;51.402;0.016;2023-09-12T00:28:30;20.90;96.80
44775;DHT22;31340;51.402;0.016;2023-09-12T00:30:57;20.90;96.80
44775;DHT22;31340;51.402;0.016;2023-09-12T00:33:25;20.90;96.90
44775;DHT22;31340;51.402;0.016;2023-09-12T00:35:53;20.90;96.90
44775;DHT22;31340;51.402;0.016;2023-09-12T00:38:20;20.90;97.00
44775;DHT22;31340;51.402;0.016;2023-09-12T00:40:48;20.80;97.00
44775;DHT22;31340;51.402;0.016;2023-09-12T00:43:16;20.80;97.20
44775;DHT22;31340;51.402;0.016;2023-09-12T00:45:44;20.80;97.20
44775;DHT22;31340;51.402;0.016;2023-09-12T00:48:12;20.80;97.20
44775;DHT22;31340;51.402;0.016;2023-09-12T00:50:41;20.80;97.20
44775;DHT22;31340;51.402;0.016;2023-09-12T00:53:10;20.80;97.20
44775;DHT22;31340;51.402;0.016;2023-09-12T00:55:42;20.70;97.20
44775;DHT22;31340;51.402;0.016;2023-09-12T00:58:10;20.70;97.30
44775;DHT22;31340;51.402;0.016;2023-09-12T01:00:38;20.70;97.30
44775;DHT22;31340;51.402;0.016;2023-09-12T01:03:05;20.70;97.40
44775;DHT22;31340;51.402;0.016;2023-09-12T01:05:34;20.70;97.50
44775;DHT22;31340;51.402;0.016;2023-09-12T01:08:02;20.70;97.50
44775;DHT22;31340;51.402;0.016;2023-09-12T01:10:30;20.70;97.50
44775;DHT22;31340;51.402;0.016;2023-09-12T01:12:58;20.70;97.60
44775;DHT22;31340;51.402;0.016;2023-09-12T01:15:26;20.60;97.60
44775;DHT22;31340;51.402;0.016;2023-09-12T01:17:56;20.60;97.70
44775;DHT22;31340;51.402;0.016;2023-09-12T01:20:30;20.60;97.70
44775;DHT22;31340;51.402;0.016;2023-09-12T01:28:23;20.60;97.70
44775;DHT22;31340;51.402;0.016;2023-09-12T01:30:53;20.60;97.80
44775;DHT22;31340;51.402;0.016;2023-09-12T01:33:21;20.60;97.80
44775;DHT22;31340;51.402;0.016;2023-09-12T01:35:48;20.60;97.80
44775;DHT22;31340;51.402;0.016;2023-09-12T01:38:16;20.60;97.90
44775;DHT22;31340;51.402;0.016;2023-09-12T01:40:49;20.60;98.00
44775;DHT22;31340;51.402;0.016;2023-09-12T01:43:21;20.60;98.00
44775;DHT22;31340;51.402;0.016;2023-09-12T01:45:54;20.60;98.10
44775;DHT22;31340;51.402;0.016;2023-09-12T01:48:25;20.50;98.10
44775;DHT22;31340;51.402;0.016;2023-09-12T01:50:54;20.50;98.20
44775;DHT22;31340;51.402;0.016;2023-09-12T01:53:21;20.50;98.20
44775;DHT22;31340;51.402;0.016;2023-09-12T01:55:49;20.50;98.30
44775;DHT22;31340;51.402;0.016;2023-09-12T01:58:18;20.50;98.30
44775;DHT22;31340;51.402;0.016;2023-09-12T02:00:46;20.50;98.30
44775;DHT22;31340;51.402;0.016;2023-09-12T02:03:13;20.50;98.40
44775;DHT22;31340;51.402;0.016;2023-09-12T02:05:41;20.50;98.40
44775;DHT22;31340;51.402;0.016;2023-09-12T02:08:10;20.50;98.40
44775;DHT22;31340;51.402;0.016;2023-09-12T02:10:38;20.50;98.60
44775;DHT22;31340;51.402;0.016;2023-09-12T02:13:05;20.50;98.40
44775;DHT22;31340;51.402;0.016;2023-09-12T02:15:33;20.50;98.50
44775;DHT22;31340;51.402;0.016;2023-09-12T02:18:01;20.50;98.60
44775;DHT22;31340;51.402;0.016;2023-09-12T02:20:28;20.50;98.60
44775;DHT22;31340;51.402;0.016;2023-09-12T02:22:56;20.50;98.60
44775;DHT22;31340;51.402;0.016;2023-09-12T02:25:24;20.50;98.60
44775;DHT22;31340;51.402;0.016;2023-09-12T02:27:53;20.60;98.70
44775;DHT22;31340;51.402;0.016;2023-09-12T02:30:21;20.50;98.70
44775;DHT22;31340;51.402;0.016;2023-09-12T02:32:48;20.60;98.80
44775;DHT22;31340;51.402;0.016;2023-09-12T02:35:16;20.60;98.80
44775;DHT22;31340;51.402;0.016;2023-09-12T02:37:43;20.50;98.80
44775;DHT22;31340;51.402;0.016;2023-09-12T02:40:11;20.60;98.90
44775;DHT22;31340;51.402;0.016;2023-09-12T02:42:39;20.60;98.90
44775;DHT22;31340;51.402;0.016;2023-09-12T02:45:07;20.60;99.00
44775;DHT22;31340;51.402;0.016;2023-09-12T02:47:35;20.60;99.10
44775;DHT22;31340;51.402;0.016;2023-09-12T02:50:02;20.60;99.20
44775;DHT22;31340;51.402;0.016;2023-09-12T02:52:30;20.60;99.20
44775;DHT22;31340;51.402;0.016;2023-09-12T02:54:58;20.60;99.20
44775;DHT22;31340;51.402;0.016;2023-09-12T02:57:25;20.60;99.30
44775;DHT22;31340;51.402;0.016;2023-09-12T02:59:53;20.60;99.40
44775;DHT22;31340;51.402;0.016;2023-09-12T03:02:20;20.60;99.40
44775;DHT22;31340;51.402;0.016;2023-09-12T03:04:48;20.60;99.40
44775;DHT22;31340;51.402;0.016;2023-09-12T03:07:15;20.60;99.50
44775;DHT22;31340;51.402;0.016;2023-09-12T03:09:43;20.50;99.50
44775;DHT22;31340;51.402;0.016;2023-09-12T03:12:11;20.60;99.60
44775;DHT22;31340;51.402;0.016;2023-09-12T03:14:39;20.50;99.60
44775;DHT22;31340;51.402;0.016;2023-09-12T03:17:06;20.50;99.60
44775;DHT22;31340;51.402;0.016;2023-09-12T03:19:34;20.50;99.70
44775;DHT22;31340;51.402;0.016;2023-09-12T03:22:02;20.50;99.70
44775;DHT22;31340;51.402;0.016;2023-09-12T03:24:30;20.50;99.70
44775;DHT22;31340;51.402;0.016;2023-09-12T03:26:58;20.60;99.80
44775;DHT22;31340;51.402;0.016;2023-09-12T03:29:26;20.60;99.80
44775;DHT22;31340;51.402;0.016;2023-09-12T03:31:53;20.60;99.80
44775;DHT22;31340;51.402;0.016;2023-09-12T03:34:21;20.60;99.90
44775;DHT22;31340;51.402;0.016;2023-09-12T03:36:48;20.60;99.90
44775;DHT22;31340;51.402;0.016;2023-09-12T03:39:16;20.60;99.90
44775;DHT22;31340;51.402;0.016;2023-09-12T03:41:44;20.60;99.90
44775;DHT22;31340;51.402;0.016;2023-09-12T03:44:11;20.60;99.90
44775;DHT22;31340;51.402;0.016;2023-09-12T03:46:39;20.60;99.90
44775;DHT22;31340;51.402;0.016;2023-09-12T03:49:07;20.60;99.90
44775;DHT22;31340;51.402;0.016;2023-09-12T03:51:35;20.60;99.90
44775;DHT22;31340;51.402;0.016;2023-09-12T03:54:05;20.60;99.90
44775;DHT22;31340;51.402;0.016;2023-09-12T03:56:33;20.60;99.90
44775;DHT22;31340;51.402;0.016;2023-09-12T03:59:00;20.70;99.90
44775;DHT22;31340;51.402;0.016;2023-09-12T04:01:28;20.70;99.90
44775;DHT22;31340;51.402;0.016;2023-09-12T04:03:56;20.70;99.90
44775;DHT22;31340;51.402;0.016;2023-09-12T04:06:26;20.70;99.90
44775;DHT22;31340;51.402;0.016;2023-09-12T04:08:53;20.70;99.90
44775;DHT22;31340;51.402;0.016;2023-09-12T04:11:21;20.70;99.90
44775;DHT22;31340;51.402;0.016;2023-09-12T04:14:08;20.70;99.90
44775;DHT22;31340;51.402;0.016;2023-09-12T04:16:36;20.70;99.90
44775;DHT22;31340;51.402;0.016;2023-09-12T04:19:04;20.70;99.90
44775;DHT22;31340;51.402;0.016;2023-09-12T04:21:33;20.70;99.90
44775;DHT22;31340;51.402;0.016;2023-09-12T04:24:00;20.70;99.90
44775;DHT22;31340;51.402;0.016;2023-09-12T04:26:28;20.70;99.90
44775;DHT22;31340;51.402;0.016;2023-09-12T04:28:56;20.70;99.90
44775;DHT22;31340;51.402;0.016;2023-09-12T04:31:24;20.70;99.90
44775;DHT22;31340;51.402;0.016;2023-09-12T04:33:52;20.70;99.90
44775;DHT22;31340;51.402;0.016;2023-09-12T04:36:21;20.60;99.90
44775;DHT22;31340;51.402;0.016;2023-09-12T04:38:48;20.70;99.90
44775;DHT22;31340;51.402;0.016;2023-09-12T04:41:17;20.70;99.90
44775;DHT22;31340;51.402;0.016;2023-09-12T04:43:45;20.60;99.90
44775;DHT22;31340;51.402;0.016;2023-09-12T04:46:13;20.60;99.90
44775;DHT22;31340;51.402;0.016;2023-09-12T04:48:41;20.70;99.90
44775;DHT22;31340;51.402;0.016;2023-09-12T04:51:09;20.60;99.90
44775;DHT22;31340;51.402;0.016;2023-09-12T04:53:36;20.70;99.90
44775;DHT22;31340;51.402;0.016;2023-09-12T04:56:05;20.60;99.90
44775;DHT22;31340;51.402;0.016;2023-09-12T04:58:33;20.60;99.90
44775;DHT22;31340;51.402;0.016;2023-09-12T05:01:01;20.60;99.90
44775;DHT22;31340;51.402;0.016;2023-09-12T05:03:29;20.60;99.90
44775;DHT22;31340;51.402;0.016;2023-09-12T05:05:57;20.60;99.90
44775;DHT22;31340;51.402;0.016;2023-09-12T05:08:26;20.60;99.90
44775;DHT22;31340;51.402;0.016;2023-09-12T05:10:53;20.60;99.90
44775;DHT22;31340;51.402;0.016;2023-09-12T05:13:21;20.60;99.90
44775;DHT22;31340;51.402;0.016;2023-09-12T05:15:49;20.60;99.90
44775;DHT22;31340;51.402;0.016;2023-09-12T05:18:17;20.60;99.90
44775;DHT22;31340;51.402;0.016;2023-09-12T05:20:45;20.60;99.90
44775;DHT22;31340;51.402;0.016;2023-09-12T05:23:12;20.60;99.90
44775;DHT22;31340;51.402;0.016;2023-09-12T05:25:40;20.60;99.90
44775;DHT22;31340;51.402;0.016;2023-09-12T05:28:08;20.60;99.90
44775;DHT22;31340;51.402;0.016;2023-09-12T05:30:36;20.60;99.90
44775;DHT22;31340;51.402;0.016;2023-09-12T05:33:03;20.60;99.90
44775;DHT22;31340;51.402;0.016;2023-09-12T05:35:32;20.60;99.90
44775;DHT22;31340;51.402;0.016;2023-09-12T05:37:59;20.60;99.90
44775;DHT22;31340;51.402;0.016;2023-09-12T05:40:27;20.60;99.90
44775;DHT22;31340;51.402;0.016;2023-09-12T05:42:55;20.60;99.90
44775;DHT22;31340;51.402;0.016;2023-09-12T05:45:22;20.60;99.90
44775;DHT22;31340;51.402;0.016;2023-09-12T05:47:51;20.60;99.90
44775;DHT22;31340;51.402;0.016;2023-09-12T05:50:21;20.50;99.90
44775;DHT22;31340;51.402;0.016;2023-09-12T05:52:48;20.60;99.90
44775;DHT22;31340;51.402;0.016;2023-09-12T05:55:16;20.60;99.90
44775;DHT22;31340;51.402;0.016;2023-09-12T05:57:45;20.60;99.90
44775;DHT22;31340;51.402;0.016;2023-09-12T06:00:15;20.60;99.90
44775;DHT22;31340;51.402;0.016;2023-09-12T06:02:44;20.50;99.90
44775;DHT22;31340;51.402;0.016;2023-09-12T06:05:12;20.50;99.90
44775;DHT22;31340;51.402;0.016;2023-09-12T06:07:40;20.50;99.90
44775;DHT22;31340;51.402;0.016;2023-09-12T06:10:08;20.50;99.90
44775;DHT22;31340;51.402;0.016;2023-09-12T06:12:36;20.50;99.90
44775;DHT22;31340;51.402;0.016;2023-09-12T06:15:05;20.50;99.90
44775;DHT22;31340;51.402;0.016;2023-09-12T06:17:33;20.50;99.90
44775;DHT22;31340;51.402;0.016;2023-09-12T06:20:02;20.50;99.90
44775;DHT22;31340;51.402;0.016;2023-09-12T06:22:33;20.50;99.90
44775;DHT22;31340;51.402;0.016;2023-09-12T06:25:01;20.50;99.90
44775;DHT22;31340;51.402;0.016;2023-09-12T06:27:28;20.50;99.90
44775;DHT22;31340;51.402;0.016;2023-09-12T06:29:58;20.50;99.90
44775;DHT22;31340;51.402;0.016;2023-09-12T06:32:25;20.50;99.90
44775;DHT22;31340;51.402;0.016;2023-09-12T06:34:53;20.60;99.90
44775;DHT22;31340;51.402;0.016;2023-09-12T06:37:21;20.50;99.90
44775;DHT22;31340;51.402;0.016;2023-09-12T06:39:51;20.60;99.90
44775;DHT22;31340;51.402;0.016;2023-09-12T06:42:19;20.60;99.90
44775;DHT22;31340;51.402;0.016;2023-09-12T06:44:47;20.60;99.90
44775;DHT22;31340;51.402;0.016;2023-09-12T06:47:14;20.60;99.90
44775;DHT22;31340;51.402;0.016;2023-09-12T06:49:42;20.60;99.90
44775;DHT22;31340;51.402;0.016;2023-09-12T06:52:11;20.60;99.90
44775;DHT22;31340;51.402;0.016;2023-09-12T06:54:38;20.70;99.90
44775;DHT22;31340;51.402;0.016;2023-09-12T06:57:06;20.70;99.90
44775;DHT22;31340;51.402;0.016;2023-09-12T06:59:33;20.70;99.90
44775;DHT22;31340;51.402;0.016;2023-09-12T07:02:01;20.70;99.90
44775;DHT22;31340;51.402;0.016;2023-09-12T07:04:29;20.80;99.90
44775;DHT22;31340;51.402;0.016;2023-09-12T07:06:57;20.80;99.90
44775;DHT22;31340;51.402;0.016;2023-09-12T07:09:24;20.80;99.90
44775;DHT22;31340;51.402;0.016;2023-09-12T07:11:52;20.80;99.90
44775;DHT22;31340;51.402;0.016;2023-09-12T07:14:20;20.90;99.90
44775;DHT22;31340;51.402;0.016;2023-09-12T07:16:48;20.90;99.90
44775;DHT22;31340;51.402;0.016;2023-09-12T07:19:15;20.90;99.90
44775;DHT22;31340;51.402;0.016;2023-09-12T07:21:43;20.90;99.90
44775;DHT22;31340;51.402;0.016;2023-09-12T07:24:10;20.90;99.90
44775;DHT22;31340;51.402;0.016;2023-09-12T07:26:38;20.90;99.90
44775;DHT22;31340;51.402;0.016;2023-09-12T07:29:06;21.00;99.90
44775;DHT22;31340;51.402;0.016;2023-09-12T07:31:34;21.00;99.90
44775;DHT22;31340;51.402;0.016;2023-09-12T07:34:02;21.00;99.90
44775;DHT22;31340;51.402;0.016;2023-09-12T07:36:33;21.10;99.90
44775;DHT22;31340;51.402;0.016;2023-09-12T07:39:00;21.10;99.90
44775;DHT22;31340;51.402;0.016;2023-09-12T07:41:28;21.10;99.90
44775;DHT22;31340;51.402;0.016;2023-09-12T07:43:56;21.00;99.90
44775;DHT22;31340;51.402;0.016;2023-09-12T07:46:23;21.10;99.90
44775;DHT22;31340;51.402;0.016;2023-09-12T07:48:51;21.10;99.90
44775;DHT22;31340;51.402;0.016;2023-09-12T07:51:20;21.10;99.90
44775;DHT22;31340;51.402;0.016;2023-09-12T07:53:47;21.10;99.90
44775;DHT22;31340;51.402;0.016;2023-09-12T07:56:15;21.20;99.90
44775;DHT22;31340;51.402;0.016;2023-09-12T07:58:42;21.10;99.90
44775;DHT22;31340;51.402;0.016;2023-09-12T08:01:10;21.20;99.90
44775;DHT22;31340;51.402;0.016;2023-09-12T08:03:39;21.20;99.90
44775;DHT22;31340;51.402;0.016;2023-09-12T08:06:08;21.20;99.90
44775;DHT22;31340;51.402;0.016;2023-09-12T08:08:36;21.20;99.90
44775;DHT22;31340;51.402;0.016;2023-09-12T08:11:03;21.20;99.90
44775;DHT22;31340;51.402;0.016;2023-09-12T08:13:31;21.20;99.90
44775;DHT22;31340;51.402;0.016;2023-09-12T08:15:58;21.20;99.90
44775;DHT22;31340;51.402;0.016;2023-09-12T08:18:29;21.30;99.90
44775;DHT22;31340;51.402;0.016;2023-09-12T08:20:57;21.30;99.90
44775;DHT22;31340;51.402;0.016;2023-09-12T08:23:25;21.40;99.90
44775;DHT22;31340;51.402;0.016;2023-09-12T08:25:52;21.40;99.90
44775;DHT22;31340;51.402;0.016;2023-09-12T08:28:20;21.40;99.90
44775;DHT22;31340;51.402;0.016;2023-09-12T08:30:47;21.40;99.90
44775;DHT22;31340;51.402;0.016;2023-09-12T08:33:15;21.50;99.90
44775;DHT22;31340;51.402;0.016;2023-09-12T08:35:43;21.50;99.90
44775;DHT22;31340;51.402;0.016;2023-09-12T08:38:11;21.50;99.90
44775;DHT22;31340;51.402;0.016;2023-09-12T08:40:39;21.50;99.90
44775;DHT22;31340;51.402;0.016;2023-09-12T08:43:07;21.60;99.90
44775;DHT22;31340;51.402;0.016;2023-09-12T08:45:36;21.60;99.90
44775;DHT22;31340;51.402;0.016;2023-09-12T08:48:04;21.60;99.90
44775;DHT22;31340;51.402;0.016;2023-09-12T08:50:32;21.70;99.90
44775;DHT22;31340;51.402;0.016;2023-09-12T08:53:02;21.70;99.90
44775;DHT22;31340;51.402;0.016;2023-09-12T08:55:35;21.70;99.90
44775;DHT22;31340;51.402;0.016;2023-09-12T08:58:05;21.70;99.90
44775;DHT22;31340;51.402;0.016;2023-09-12T09:00:33;21.80;99.90
44775;DHT22;31340;51.402;0.016;2023-09-12T09:03:01;21.80;99.90
44775;DHT22;31340;51.402;0.016;2023-09-12T09:05:31;21.90;99.90
44775;DHT22;31340;51.402;0.016;2023-09-12T09:07:59;21.90;99.90
44775;DHT22;31340;51.402;0.016;2023-09-12T09:10:27;21.90;99.90
44775;DHT22;31340;51.402;0.016;2023-09-12T09:13:17;22.00;99.90
44775;DHT22;31340;51.402;0.016;2023-09-12T09:15:46;22.00;99.90
44775;DHT22;31340;51.402;0.016;2023-09-12T09:18:15;22.10;99.90
44775;DHT22;31340;51.402;0.016;2023-09-12T09:20:42;22.10;99.90
44775;DHT22;31340;51.402;0.016;2023-09-12T09:23:12;22.20;99.90
44775;DHT22;31340;51.402;0.016;2023-09-12T09:25:42;22.20;99.90
44775;DHT22;31340;51.402;0.016;2023-09-12T09:28:18;22.20;99.90
44775;DHT22;31340;51.402;0.016;2023-09-12T09:30:51;22.30;99.90
44775;DHT22;31340;51.402;0.016;2023-09-12T09:33:21;22.30;99.90
44775;DHT22;31340;51.402;0.016;2023-09-12T09:35:49;22.30;99.90
44775;DHT22;31340;51.402;0.016;2023-09-12T09:38:19;22.40;99.90
44775;DHT22;31340;51.402;0.016;2023-09-12T09:40:48;22.40;99.80
44775;DHT22;31340;51.402;0.016;2023-09-12T09:43:22;22.40;99.80
44775;DHT22;31340;51.402;0.016;2023-09-12T09:45:50;22.50;99.70
44775;DHT22;31340;51.402;0.016;2023-09-12T09:48:25;22.60;99.40
44775;DHT22;31340;51.402;0.016;2023-09-12T09:51:02;22.60;99.10
44775;DHT22;31340;51.402;0.016;2023-09-12T09:53:30;22.70;99.00
44775;DHT22;31340;51.402;0.016;2023-09-12T09:56:12;22.70;99.10
44775;DHT22;31340;51.402;0.016;2023-09-12T09:58:56;22.80;98.90
44775;DHT22;31340;51.402;0.016;2023-09-12T10:01:28;22.90;98.80
44775;DHT22;31340;51.402;0.016;2023-09-12T10:04:01;22.90;98.60
44775;DHT22;31340;51.402;0.016;2023-09-12T10:06:29;23.00;98.80
44775;DHT22;31340;51.402;0.016;2023-09-12T10:09:02;23.10;98.60
44775;DHT22;31340;51.402;0.016;2023-09-12T10:11:33;23.30;98.20
44775;DHT22;31340;51.402;0.016;2023-09-12T10:14:04;23.40;97.90
44775;DHT22;31340;51.402;0.016;2023-09-12T10:16:33;23.50;97.60
44775;DHT22;31340;51.402;0.016;2023-09-12T10:19:20;23.60;97.40
44775;DHT22;31340;51.402;0.016;2023-09-12T10:24:25;23.80;96.80
44775;DHT22;31340;51.402;0.016;2023-09-12T10:26:55;23.90;96.30
44775;DHT22;31340;51.402;0.016;2023-09-12T10:29:24;24.10;96.00
44775;DHT22;31340;51.402;0.016;2023-09-12T10:31:51;24.10;95.50
44775;DHT22;31340;51.402;0.016;2023-09-12T10:34:20;24.30;95.30
44775;DHT22;31340;51.402;0.016;2023-09-12T10:36:49;24.40;95.30
44775;DHT22;31340;51.402;0.016;2023-09-12T10:39:19;24.60;94.90
44775;DHT22;31340;51.402;0.016;2023-09-12T10:41:49;24.70;94.50
44775;DHT22;31340;51.402;0.016;2023-09-12T10:44:18;24.80;94.00
44775;DHT22;31340;51.402;0.016;2023-09-12T10:46:48;24.80;93.90
44775;DHT22;31340;51.402;0.016;2023-09-12T10:49:18;24.90;93.70
44775;DHT22;31340;51.402;0.016;2023-09-12T10:51:47;25.00;93.10
44775;DHT22;31340;51.402;0.016;2023-09-12T10:54:23;25.00;92.80
44775;DHT22;31340;51.402;0.016;2023-09-12T10:57:11;25.10;92.80
44775;DHT22;31340;51.402;0.016;2023-09-12T11:04:56;25.10;92.10
44775;DHT22;31340;51.402;0.016;2023-09-12T11:12:43;25.10;91.20
44775;DHT22;31340;51.402;0.016;2023-09-12T11:15:11;25.10;91.20
44775;DHT22;31340;51.402;0.016;2023-09-12T11:17:39;25.10;91.10
44775;DHT22;31340;51.402;0.016;2023-09-12T11:20:08;25.10;91.20
44775;DHT22;31340;51.402;0.016;2023-09-12T11:22:44;25.10;90.90
44775;DHT22;31340;51.402;0.016;2023-09-12T11:25:24;25.10;90.70
44775;DHT22;31340;51.402;0.016;2023-09-12T11:30:24;25.00;90.60
44775;DHT22;31340;51.402;0.016;2023-09-12T11:32:54;25.00;90.60
44775;DHT22;31340;51.402;0.016;2023-09-12T11:35:23;25.00;90.80
44775;DHT22;31340;51.402;0.016;2023-09-12T11:37:56;25.10;90.90
44775;DHT22;31340;51.402;0.016;2023-09-12T11:43:01;25.10;90.30
44775;DHT22;31340;51.402;0.016;2023-09-12T11:45:29;25.20;90.40
44775;DHT22;31340;51.402;0.016;2023-09-12T11:47:57;25.30;90.40
44775;DHT22;31340;51.402;0.016;2023-09-12T11:50:37;25.30;90.10
44775;DHT22;31340;51.402;0.016;2023-09-12T11:53:08;25.40;90.10
44775;DHT22;31340;51.402;0.016;2023-09-12T11:55:42;25.50;89.70
44775;DHT22;31340;51.402;0.016;2023-09-12T11:58:11;25.60;89.80
44775;DHT22;31340;51.402;0.016;2023-09-12T12:00:49;25.70;89.70
44775;DHT22;31340;51.402;0.016;2023-09-12T12:03:20;25.80;89.30
44775;DHT22;31340;51.402;0.016;2023-09-12T12:05:49;26.00;89.60
44775;DHT22;31340;51.402;0.016;2023-09-12T12:08:18;26.10;88.60
44775;DHT22;31340;51.402;0.016;2023-09-12T12:10:52;26.10;87.90
44775;DHT22;31340;51.402;0.016;2023-09-12T12:13:22;26.20;88.20
44775;DHT22;31340;51.402;0.016;2023-09-12T12:15:50;26.20;87.40
44775;DHT22;31340;51.402;0.016;2023-09-12T12:18:19;26.30;87.10
44775;DHT22;31340;51.402;0.016;2023-09-12T12:20:47;26.40;85.80
44775;DHT22;31340;51.402;0.016;2023-09-12T12:23:14;26.40;85.50
44775;DHT22;31340;51.402;0.016;2023-09-12T12:25:42;26.40;85.40
44775;DHT22;31340;51.402;0.016;2023-09-12T12:28:09;26.40;84.40
44775;DHT22;31340;51.402;0.016;2023-09-12T12:30:37;26.40;84.30
44775;DHT22;31340;51.402;0.016;2023-09-12T12:33:09;26.30;84.30
44775;DHT22;31340;51.402;0.016;2023-09-12T12:36:00;26.20;84.70
44775;DHT22;31340;51.402;0.016;2023-09-12T12:38:36;26.30;84.40
44775;DHT22;31340;51.402;0.016;2023-09-12T12:41:27;26.20;83.90
44775;DHT22;31340;51.402;0.016;2023-09-12T12:44:09;26.20;83.80
44775;DHT22;31340;51.402;0.016;2023-09-12T12:49:17;26.10;84.10
44775;DHT22;31340;51.402;0.016;2023-09-12T12:51:45;26.10;84.00
44775;DHT22;31340;51.402;0.016;2023-09-12T12:54:14;26.10;83.30
44775;DHT22;31340;51.402;0.016;2023-09-12T12:56:43;26.10;83.40
44775;DHT22;31340;51.402;0.016;2023-09-12T12:59:12;26.10;83.80
44775;DHT22;31340;51.402;0.016;2023-09-12T13:01:39;26.10;83.90
44775;DHT22;31340;51.402;0.016;2023-09-12T13:04:08;26.10;83.40
44775;DHT22;31340;51.402;0.016;2023-09-12T13:06:36;26.10;82.80
44775;DHT22;31340;51.402;0.016;2023-09-12T13:09:05;26.00;82.80
44775;DHT22;31340;51.402;0.016;2023-09-12T13:11:33;26.00;82.80
44775;DHT22;31340;51.402;0.016;2023-09-12T13:14:04;25.90;83.30
44775;DHT22;31340;51.402;0.016;2023-09-12T13:16:39;25.90;83.40
44775;DHT22;31340;51.402;0.016;2023-09-12T13:19:09;25.80;83.00
44775;DHT22;31340;51.402;0.016;2023-09-12T13:21:38;25.80;83.10
44775;DHT22;31340;51.402;0.016;2023-09-12T13:24:06;25.80;83.20
44775;DHT22;31340;51.402;0.016;2023-09-12T13:26:35;25.80;83.40
44775;DHT22;31340;51.402;0.016;2023-09-12T13:29:03;25.70;83.70
44775;DHT22;31340;51.402;0.016;2023-09-12T13:31:31;25.70;83.80
44775;DHT22;31340;51.402;0.016;2023-09-12T13:34:01;25.70;84.20
44775;DHT22;31340;51.402;0.016;2023-09-12T13:36:30;25.70;85.30
44775;DHT22;31340;51.402;0.016;2023-09-12T13:38:58;25.70;85.20
44775;DHT22;31340;51.402;0.016;2023-09-12T13:41:25;25.80;85.40
44775;DHT22;31340;51.402;0.016;2023-09-12T13:43:53;25.80;85.30
44775;DHT22;31340;51.402;0.016;2023-09-12T13:46:21;25.90;85.30
44775;DHT22;31340;51.402;0.016;2023-09-12T13:48:48;26.00;85.30
44775;DHT22;31340;51.402;0.016;2023-09-12T13:51:16;26.10;84.60
44775;DHT22;31340;51.402;0.016;2023-09-12T13:53:44;26.30;84.70
44775;DHT22;31340;51.402;0.016;2023-09-12T13:56:12;26.40;83.10
44775;DHT22;31340;51.402;0.016;2023-09-12T13:58:44;26.40;81.90
44775;DHT22;31340;51.402;0.016;2023-09-12T14:01:13;26.40;81.60
44775;DHT22;31340;51.402;0.016;2023-09-12T14:03:57;26.50;81.20
44775;DHT22;31340;51.402;0.016;2023-09-12T14:06:25;26.70;81.00
44775;DHT22;31340;51.402;0.016;2023-09-12T14:08:53;26.80;79.90
44775;DHT22;31340;51.402;0.016;2023-09-12T14:11:21;26.80;79.20
44775;DHT22;31340;51.402;0.016;2023-09-12T14:14:01;26.80;79.60
44775;DHT22;31340;51.402;0.016;2023-09-12T14:16:41;26.90;79.60
44775;DHT22;31340;51.402;0.016;2023-09-12T14:19:14;26.90;79.50
44775;DHT22;31340;51.402;0.016;2023-09-12T14:21:42;27.10;79.50
44775;DHT22;31340;51.402;0.016;2023-09-12T14:24:13;27.20;79.20
44775;DHT22;31340;51.402;0.016;2023-09-12T14:26:40;27.20;78.90
44775;DHT22;31340;51.402;0.016;2023-09-12T14:29:08;27.20;78.40
44775;DHT22;31340;51.402;0.016;2023-09-12T14:31:38;27.20;78.50
44775;DHT22;31340;51.402;0.016;2023-09-12T14:34:06;27.30;77.60
44775;DHT22;31340;51.402;0.016;2023-09-12T14:36:35;27.30;76.90
44775;DHT22;31340;51.402;0.016;2023-09-12T14:39:03;27.30;76.00
44775;DHT22;31340;51.402;0.016;2023-09-12T14:41:31;27.20;75.50
44775;DHT22;31340;51.402;0.016;2023-09-12T14:43:58;27.20;75.90
44775;DHT22;31340;51.402;0.016;2023-09-12T14:46:26;27.10;75.40
44775;DHT22;31340;51.402;0.016;2023-09-12T14:48:53;27.10;75.80
44775;DHT22;31340;51.402;0.016;2023-09-12T14:51:29;27.00;75.90
44775;DHT22;31340;51.402;0.016;2023-09-12T14:54:04;26.90;75.70
44775;DHT22;31340;51.402;0.016;2023-09-12T14:56:33;27.00;75.60
44775;DHT22;31340;51.402;0.016;2023-09-12T14:59:01;26.90;75.90
44775;DHT22;31340;51.402;0.016;2023-09-12T15:01:30;26.80;75.30
44775;DHT22;31340;51.402;0.016;2023-09-12T15:03:57;26.80;74.90
44775;DHT22;31340;51.402;0.016;2023-09-12T15:06:25;26.70;74.60
44775;DHT22;31340;51.402;0.016;2023-09-12T15:08:53;26.60;74.90
44775;DHT22;31340;51.402;0.016;2023-09-12T15:11:20;26.50;75.50
44775;DHT22;31340;51.402;0.016;2023-09-12T15:13:48;26.40;76.10
44775;DHT22;31340;51.402;0.016;2023-09-12T15:16:16;26.40;76.40
44775;DHT22;31340;51.402;0.016;2023-09-12T15:18:45;26.30;76.80
44775;DHT22;31340;51.402;0.016;2023-09-12T15:21:13;26.30;77.10
44775;DHT22;31340;51.402;0.016;2023-09-12T15:23:40;26.30;77.70
44775;DHT22;31340;51.402;0.016;2023-09-12T15:26:08;26.30;78.00
44775;DHT22;31340;51.402;0.016;2023-09-12T15:28:36;26.50;78.60
44775;DHT22;31340;51.402;0.016;2023-09-12T15:31:04;26.50;78.20
44775;DHT22;31340;51.402;0.016;2023-09-12T15:33:31;26.70;77.80
44775;DHT22;31340;51.402;0.016;2023-09-12T15:36:00;26.80;78.10
44775;DHT22;31340;51.402;0.016;2023-09-12T15:38:28;26.90;78.20
44775;DHT22;31340;51.402;0.016;2023-09-12T15:40:56;27.00;77.30
44775;DHT22;31340;51.402;0.016;2023-09-12T15:43:26;27.00;76.30
44775;DHT22;31340;51.402;0.016;2023-09-12T15:45:54;27.10;76.00
44775;DHT22;31340;51.402;0.016;2023-09-12T15:48:22;27.00;76.00
44775;DHT22;31340;51.402;0.016;2023-09-12T15:50:50;27.00;76.20
44775;DHT22;31340;51.402;0.016;2023-09-12T15:53:18;27.00;76.70
44775;DHT22;31340;51.402;0.016;2023-09-12T15:55:45;26.90;76.90
44775;DHT22;31340;51.402;0.016;2023-09-12T15:58:16;26.90;77.00
44775;DHT22;31340;51.402;0.016;2023-09-12T16:00:43;26.80;77.00
44775;DHT22;31340;51.402;0.016;2023-09-12T16:03:11;26.70;76.90
44775;DHT22;31340;51.402;0.016;2023-09-12T16:05:39;26.60;76.80
44775;DHT22;31340;51.402;0.016;2023-09-12T16:08:07;26.50;77.30